createdAt,value
2017-03-30T00:05:40.305Z,1015
2017-03-30T00:15:50.465Z,1014.9
2017-03-30T00:26:00.643Z,1014.8
2017-03-30T00:36:10.888Z,1014.8
2017-03-30T00:46:21.052Z,1014.7
2017-03-30T00:56:31.197Z,1014.8
2017-03-30T01:06:41.360Z,1014.7
2017-03-30T01:16:51.589Z,1014.6
2017-03-30T01:27:01.799Z,1014.6
2017-03-30T01:37:11.961Z,1014.6
2017-03-30T01:47:22.157Z,1014.6
2017-03-30T01:57:32.371Z,1014.6
2017-03-30T02:07:42.574Z,1014.7
2017-03-30T02:17:52.793Z,1014.8
2017-03-30T02:28:02.941Z,1014.8
2017-03-30T02:38:13.088Z,1014.8
2017-03-30T02:48:23.230Z,1014.7
2017-03-30T02:58:33.386Z,1014.7
2017-03-30T03:08:43.563Z,1014.8
2017-03-30T03:18:53.767Z,1014.8
2017-03-30T03:29:03.938Z,1014.8
2017-03-30T03:39:14.088Z,1014.8
2017-03-30T03:49:24.278Z,1014.8
2017-03-30T03:59:34.488Z,1014.7
2017-03-30T04:09:44.695Z,1014.8
2017-03-30T04:19:54.857Z,1014.8
2017-03-30T04:30:05.049Z,1014.7
2017-03-30T04:40:15.260Z,1014.7
2017-03-30T04:50:25.506Z,1014.6
2017-03-30T05:00:35.723Z,1014.6
2017-03-30T05:10:45.944Z,1014.5
2017-03-30T05:20:56.119Z,1014.5
2017-03-30T05:31:06.266Z,1014.5
2017-03-30T05:41:16.398Z,1014.6
2017-03-30T05:51:26.580Z,1014.6
2017-03-30T06:01:36.737Z,1014.7
2017-03-30T06:11:46.819Z,1014.7
2017-03-30T06:21:56.881Z,1014.8
2017-03-30T06:32:06.910Z,1014.8
2017-03-30T06:42:16.829Z,1014.8
2017-03-30T06:52:26.748Z,1014.8
2017-03-30T07:02:36.549Z,1014.8
2017-03-30T07:12:46.244Z,1014.7
2017-03-30T07:22:55.822Z,1014.8
2017-03-30T07:33:05.316Z,1014.8
2017-03-30T07:43:14.745Z,1015
2017-03-30T07:53:24.078Z,1015
2017-03-30T08:03:33.397Z,1015.1
2017-03-30T08:13:42.740Z,1014.9
2017-03-30T08:23:51.824Z,1015
2017-03-30T08:34:00.611Z,1015
2017-03-30T08:44:09.145Z,1014.9
2017-03-30T08:54:17.445Z,1015
2017-03-30T09:04:25.755Z,1015
2017-03-30T09:14:34.049Z,1015
2017-03-30T09:24:42.429Z,1015.1
2017-03-30T09:34:50.726Z,1015
2017-03-30T09:44:59.024Z,1014.6
2017-03-30T09:55:07.277Z,1014.6
2017-03-30T10:05:15.637Z,1014.7
2017-03-30T10:15:23.896Z,1014.6
2017-03-30T10:25:32.090Z,1014.5
2017-03-30T10:35:40.180Z,1014.5
2017-03-30T10:45:48.193Z,1014.6
2017-03-30T10:55:56.236Z,1015.4
2017-03-30T11:06:04.306Z,1015.6
2017-03-30T11:16:12.301Z,1015.6
2017-03-30T11:26:20.347Z,1015.4
2017-03-30T11:36:28.241Z,1014.3
2017-03-30T11:46:36.112Z,1014.1
2017-03-30T11:56:43.966Z,1014.1
2017-03-30T12:06:51.833Z,1014
2017-03-30T12:16:59.585Z,1014.2
2017-03-30T12:27:07.335Z,1013.9
2017-03-30T12:37:14.985Z,1013.7
2017-03-30T12:47:22.565Z,1013.9
2017-03-30T12:57:30.114Z,1013.4
2017-03-30T13:07:37.633Z,1013.3
2017-03-30T13:17:45.168Z,1013.2
2017-03-30T13:27:53.064Z,1013.1
2017-03-30T13:38:01.192Z,1013.1
2017-03-30T13:48:09.541Z,1013.2
2017-03-30T13:58:17.512Z,1013
2017-03-30T14:08:25.492Z,1012.9
2017-03-30T14:18:33.357Z,1012.8
2017-03-30T14:28:41.089Z,1012.8
2017-03-30T14:38:48.632Z,1012.5
2017-03-30T14:48:56.271Z,1012.6
2017-03-30T14:59:03.902Z,1012.5
2017-03-30T15:09:11.774Z,1012.4
2017-03-30T15:19:19.881Z,1012.3
2017-03-30T15:29:28.037Z,1012.2
2017-03-30T15:39:36.233Z,1012.2
2017-03-30T15:49:44.176Z,1012
2017-03-30T15:59:52.090Z,1012.1
2017-03-30T16:10:00.320Z,1012
2017-03-30T16:20:08.725Z,1011.9
2017-03-30T16:30:17.246Z,1012
2017-03-30T16:40:25.822Z,1011.8
2017-03-30T16:50:34.488Z,1011.9
2017-03-30T17:00:43.174Z,1011.8
2017-03-30T17:10:51.869Z,1011.8
2017-03-30T17:21:00.636Z,1011.8
2017-03-30T17:31:09.500Z,1011.9
2017-03-30T17:41:18.460Z,1011.7
2017-03-30T17:51:27.502Z,1011.8
2017-03-30T18:01:36.657Z,1011.7
2017-03-30T18:11:45.838Z,1011.6
2017-03-30T18:21:55.074Z,1011.6
2017-03-30T18:32:04.314Z,1011.7
2017-03-30T18:42:13.600Z,1011.6
2017-03-30T18:52:22.923Z,1011.6
2017-03-30T19:02:32.288Z,1011.6
2017-03-30T19:12:41.628Z,1011.7
2017-03-30T19:33:00.403Z,1011.5
2017-03-30T19:43:09.808Z,1011.5
2017-03-30T19:53:19.274Z,1011.4
2017-03-30T20:03:28.727Z,1011.4
2017-03-30T20:13:38.198Z,1011.4
2017-03-30T20:23:47.710Z,1011.2
2017-03-30T20:33:57.186Z,1011.2
2017-03-30T20:44:06.706Z,1011.2
2017-03-30T20:54:16.264Z,1011.1
2017-03-30T21:04:25.857Z,1011.1
2017-03-30T21:14:35.487Z,1011
2017-03-30T21:24:45.102Z,1010.9
2017-03-30T21:34:54.773Z,1010.9
2017-03-30T21:45:04.485Z,1010.8
2017-03-30T22:05:23.958Z,1010.7
2017-03-30T22:15:33.771Z,1010.5
2017-03-30T22:25:43.486Z,1010.5
2017-03-30T22:35:53.230Z,1010.5
2017-03-30T22:46:02.984Z,1010.3
2017-03-30T22:56:12.759Z,1010.3
2017-03-30T23:06:22.564Z,1010.2
2017-03-30T23:16:32.446Z,1010.1
2017-03-30T23:26:42.334Z,1010.1
2017-03-30T23:36:52.259Z,1009.9
2017-03-30T23:47:02.192Z,1009.8
2017-03-30T23:57:12.137Z,1009.6
